Time;durP1;ratioP1;P1;durP2;ratioP2;P2;SDS_P1;SDS_P2;PMS_P1;PMS_P2;Temp;Humidity;BMP_temperature;BMP_pressure;BME280_temperature;BME280_humidity;BME280_pressure;Samples;Min_cycle;Max_cycle;Signal;HPM_P1;HPM_P2
2023/12/31 00:00:51;;;;;;;;;;;;;;;8.35;66.69;99432.88;1086119;54;1404;-78
2023/12/31 00:01:52;;;;;;;;;;;;;;;8.27;66.46;99426.44;1085775;47;1168;-78
2023/12/31 00:02:55;;;;;;;;;;;;;;;8.21;66.72;99419.06;1085506;47;1079;-78
2023/12/31 00:03:56;;;;;;;;;;;;;;;8.23;66.47;99422.38;1085999;54;1139;-78
2023/12/31 00:04:59;;;;;;;;;;;;;;;8.11;66.87;99416.41;1085670;46;1354;-78
2023/12/31 00:06:01;;;;;;;;;;;;;;;7.94;67.03;99411.81;1085922;54;1167;-77
2023/12/31 00:07:05;;;;;;;;;;;;;;;7.83;67.22;99412.84;1085572;47;1427;-77
2023/12/31 00:08:06;;;;;;;;;;;;;;;7.80;67.28;99413.94;1085435;54;904;-77
2023/12/31 00:09:09;;;;;;;;;;;;;;;7.73;67.34;99410.19;1085466;54;1325;-78
2023/12/31 00:10:10;;;;;;;;;;;;;;;7.65;67.67;99408.22;1085578;54;1313;-78
2023/12/31 00:11:13;;;;;;;;;;;;;;;7.57;68.02;99407.25;1085248;47;1576;-78
2023/12/31 00:12:14;;;;;;;;;;;;;;;7.54;67.93;99402.22;1085425;47;1090;-80
2023/12/31 00:13:20;;;;;;;;;;;;;;;7.53;68.31;99405.84;1085418;54;1070;-76
2023/12/31 00:14:20;;;;;;;;;;;;;;;7.54;68.13;99400.41;1084871;54;1899;-77
2023/12/31 00:15:24;;;;;;;;;;;;;;;7.55;68.27;99394.09;1085276;46;1122;-77
2023/12/31 00:16:25;;;;;;;;;;;;;;;7.51;68.43;99395.34;1084933;47;1073;-77
2023/12/31 00:17:29;;;;;;;;;;;;;;;7.48;68.30;99396.50;1085347;47;1177;-77
2023/12/31 00:18:29;;;;;;;;;;;;;;;7.52;68.51;99399.69;1086155;47;1054;-78
2023/12/31 00:19:33;;;;;;;;;;;;;;;7.45;68.83;99393.28;1086105;54;1133;-78
2023/12/31 00:20:33;;;;;;;;;;;;;;;7.42;68.77;99394.38;1085906;47;1403;-77
2023/12/31 03:25:36;;;;;;;;;;;;;;;5.51;72.50;99114.84;1085191;54;1425;-77
2023/12/31 03:26:37;;;;;;;;;;;;;;;5.49;72.29;99111.50;1085814;47;1153;-77
2023/12/31 03:27:38;;;;;;;;;;;;;;;5.40;72.33;99103.38;1086756;54;1067;-77
2023/12/31 03:28:42;;;;;;;;;;;;;;;5.40;72.64;99114.00;1086786;47;1055;-77
2023/12/31 03:29:42;;;;;;;;;;;;;;;5.44;72.58;99096.00;1085778;47;1103;-77
2023/12/31 03:30:43;;;;;;;;;;;;;;;5.43;72.57;99097.81;1085472;54;1443;-76
2023/12/31 03:31:46;;;;;;;;;;;;;;;5.54;72.34;99098.69;1085612;47;1443;-76
2023/12/31 03:32:47;;;;;;;;;;;;;;;5.46;72.67;99092.25;1086232;54;1494;-76
2023/12/31 03:33:50;;;;;;;;;;;;;;;5.50;72.40;99095.47;1086291;54;929;-77
2023/12/31 03:34:50;;;;;;;;;;;;;;;5.47;72.64;99090.44;1086099;54;1169;-76
2023/12/31 03:35:54;;;;;;;;;;;;;;;5.53;72.37;99086.41;1085782;47;1271;-76
2023/12/31 03:36:56;;;;;;;;;;;;;;;5.59;72.34;99085.84;1085601;54;1905;-76
2023/12/31 03:37:59;;;;;;;;;;;;;;;5.56;72.34;99081.66;1085633;46;1053;-77
2023/12/31 03:39:00;;;;;;;;;;;;;;;5.56;72.25;99092.28;1086070;47;1134;-76
2023/12/31 03:40:03;;;;;;;;;;;;;;;5.65;72.17;99093.28;1085718;47;1388;-76
2023/12/31 03:41:07;;;;;;;;;;;;;;;5.67;71.99;99087.84;1085930;47;1080;-76
2023/12/31 03:42:10;;;;;;;;;;;;;;;5.62;71.87;99091.72;1085287;47;1132;-76
2023/12/31 03:43:11;;;;;;;;;;;;;;;5.51;71.98;99088.34;1085661;54;1179;-77
2023/12/31 03:44:14;;;;;;;;;;;;;;;5.60;72.24;99088.38;1085656;54;1168;-76
2023/12/31 03:45:14;;;;;;;;;;;;;;;5.61;72.03;99090.06;1085155;47;1108;-77
2023/12/31 03:46:18;;;;;;;;;;;;;;;5.56;72.29;99094.09;1086064;47;1188;-77
2023/12/31 03:47:19;;;;;;;;;;;;;;;5.57;72.47;99085.19;1087307;46;1148;-77
2023/12/31 03:48:23;;;;;;;;;;;;;;;5.66;72.41;99091.47;1087123;48;1108;-78
2023/12/31 03:49:23;;;;;;;;;;;;;;;5.73;71.82;99084.63;1087638;54;1116;-77
2023/12/31 03:50:26;;;;;;;;;;;;;;;5.76;71.97;99081.72;1087389;54;1379;-77
2023/12/31 03:51:27;;;;;;;;;;;;;;;5.75;71.87;99080.88;1087287;54;1103;-78
2023/12/31 03:52:28;;;;;;;;;;;;;;;5.72;71.67;99078.50;1087782;54;1096;-75
2023/12/31 03:53:31;;;;;;;;;;;;;;;5.70;71.74;99072.47;1088079;54;1154;-75
2023/12/31 03:54:31;;;;;;;;;;;;;;;5.70;72.10;99077.78;1087852;54;1466;-75
2023/12/31 03:55:35;;;;;;;;;;;;;;;5.74;72.01;99073.91;1087950;54;1326;-75
2023/12/31 03:56:38;;;;;;;;;;;;;;;5.73;71.94;99072.22;1087583;54;1894;-75
2023/12/31 03:57:42;;;;;;;;;;;;;;;5.74;71.82;99073.91;1087344;47;1147;-76
2023/12/31 03:58:43;;;;;;;;;;;;;;;5.76;72.01;99071.91;1086538;54;1102;-77
2023/12/31 03:59:52;;;;;;;;;;;;;;;5.77;71.94;99063.00;1085111;54;1079;-76
2023/12/31 04:00:52;;;;;;;;;;;;;;;5.80;71.88;99061.03;1084707;54;1046;-75
2023/12/31 04:02:02;;;;;;;;;;;;;;;5.81;71.80;99052.94;1084364;47;1157;-76
2023/12/31 04:03:03;;;;;;;;;;;;;;;5.70;71.85;99051.25;1086062;47;1074;-76
2023/12/31 04:04:06;;;;;;;;;;;;;;;5.67;72.17;99056.00;1084098;54;1172;-76
2023/12/31 04:05:07;;;;;;;;;;;;;;;5.73;72.01;99055.44;1084067;47;1023;-76
2023/12/31 04:06:11;;;;;;;;;;;;;;;5.71;71.91;99055.59;1083722;54;1158;-75
2023/12/31 04:07:12;;;;;;;;;;;;;;;5.80;71.72;99043.34;1084466;54;1087;-75
2023/12/31 04:08:15;;;;;;;;;;;;;;;5.74;71.85;99036.78;1084845;54;1169;-75
2023/12/31 04:09:16;;;;;;;;;;;;;;;5.72;72.01;99045.81;1084658;47;1123;-76
2023/12/31 04:10:20;;;;;;;;;;;;;;;5.76;71.66;99045.41;1084544;47;1359;-77
2023/12/31 04:11:20;;;;;;;;;;;;;;;5.76;71.65;99039.28;1085559;54;1126;-76
2023/12/31 04:12:26;;;;;;;;;;;;;;;5.73;71.83;99045.69;1085078;54;1089;-77
2023/12/31 04:13:28;;;;;;;;;;;;;;;5.69;72.00;99038.97;1084662;47;1162;-77
2023/12/31 04:14:32;;;;;;;;;;;;;;;5.71;72.02;99039.69;1084672;47;1079;-76
2023/12/31 04:15:32;;;;;;;;;;;;;;;5.62;72.13;99029.91;1084651;47;1170;-77
2023/12/31 04:16:36;;;;;;;;;;;;;;;5.53;72.44;99028.91;1084861;54;1095;-76
2023/12/31 04:17:37;;;;;;;;;;;;;;;5.57;72.50;99034.81;1084554;54;1892;-77
2023/12/31 04:18:40;;;;;;;;;;;;;;;5.56;72.66;99028.63;1084585;54;1153;-76
2023/12/31 04:19:40;;;;;;;;;;;;;;;5.56;72.49;99023.34;1084311;54;1201;-78
2023/12/31 04:20:44;;;;;;;;;;;;;;;5.53;72.56;99023.59;1084891;47;1299;-78
2023/12/31 04:21:44;;;;;;;;;;;;;;;5.50;72.69;99018.59;1085503;47;1426;-77
2023/12/31 04:22:48;;;;;;;;;;;;;;;5.56;72.44;99023.34;1084954;48;1016;-76
2023/12/31 04:23:48;;;;;;;;;;;;;;;5.65;72.14;99019.03;1085008;54;1190;-76
2023/12/31 04:24:50;;;;;;;;;;;;;;;5.69;72.09;99014.28;1084272;47;1181;-76
2023/12/31 04:25:54;;;;;;;;;;;;;;;5.66;72.37;99018.06;1084561;54;1059;-75
2023/12/31 04:26:57;;;;;;;;;;;;;;;5.66;72.38;99009.25;1084680;54;1166;-75
2023/12/31 04:28:03;;;;;;;;;;;;;;;5.71;72.24;99007.88;1084852;47;1104;-77
2023/12/31 04:29:03;;;;;;;;;;;;;;;5.58;72.60;99010.78;1084919;46;1182;-77
2023/12/31 04:30:07;;;;;;;;;;;;;;;5.64;72.15;99004.09;1084816;47;1393;-75
2023/12/31 04:31:08;;;;;;;;;;;;;;;5.68;72.38;99004.66;1084795;54;1154;-77
2023/12/31 04:32:11;;;;;;;;;;;;;;;5.71;72.22;99005.22;1084965;47;1509;-77
2023/12/31 04:33:12;;;;;;;;;;;;;;;5.71;72.30;99013.16;1085259;54;1150;-76
2023/12/31 04:34:15;;;;;;;;;;;;;;;5.73;72.01;99000.63;1084807;54;1085;-77
2023/12/31 04:35:16;;;;;;;;;;;;;;;5.78;72.16;99003.66;1085234;47;1111;-76
2023/12/31 04:36:19;;;;;;;;;;;;;;;5.77;71.98;98999.34;1084887;46;1196;-76
2023/12/31 04:37:20;;;;;;;;;;;;;;;5.77;72.06;99002.00;1084422;47;1897;-76
2023/12/31 04:38:23;;;;;;;;;;;;;;;5.65;72.01;98995.16;1085681;47;1185;-76
2023/12/31 04:39:24;;;;;;;;;;;;;;;5.58;72.38;99000.19;1086324;54;1194;-77
2023/12/31 04:40:27;;;;;;;;;;;;;;;5.47;72.55;98998.50;1086476;47;1287;-76
2023/12/31 04:41:28;;;;;;;;;;;;;;;5.45;72.27;98989.84;1086550;54;1166;-77
2023/12/31 04:42:32;;;;;;;;;;;;;;;5.44;72.49;98993.47;1086613;47;1514;-75
2023/12/31 04:43:35;;;;;;;;;;;;;;;5.42;72.50;98995.41;1086823;54;1189;-77
2023/12/31 04:44:35;;;;;;;;;;;;;;;5.40;72.59;98997.34;1086135;54;1147;-77
2023/12/31 04:45:39;;;;;;;;;;;;;;;5.41;72.72;98995.56;1085087;54;1127;-77
2023/12/31 04:46:40;;;;;;;;;;;;;;;5.39;72.47;98995.69;1086708;47;1080;-77
2023/12/31 04:47:43;;;;;;;;;;;;;;;5.37;72.68;98995.00;1087064;47;1039;-77
2023/12/31 04:48:44;;;;;;;;;;;;;;;5.33;72.76;98990.94;1085479;54;1158;-76
2023/12/31 04:49:47;;;;;;;;;;;;;;;5.44;72.51;98996.13;1085380;47;1198;-75
2023/12/31 04:50:48;;;;;;;;;;;;;;;5.52;72.24;98990.16;1085603;54;1351;-78
2023/12/31 04:51:51;;;;;;;;;;;;;;;5.50;72.32;98989.44;1086320;54;1187;-76
2023/12/31 04:52:52;;;;;;;;;;;;;;;5.43;72.68;98991.78;1085978;47;1039;-77
2023/12/31 04:53:53;;;;;;;;;;;;;;;5.35;72.70;98994.28;1085169;47;999;-76
2023/12/31 04:54:57;;;;;;;;;;;;;;;5.24;73.01;98991.75;1085804;54;1078;-76
2023/12/31 04:55:58;;;;;;;;;;;;;;;5.23;72.96;98985.63;1085837;54;1099;-77
2023/12/31 04:57:02;;;;;;;;;;;;;;;5.28;73.01;98985.22;1085685;47;1924;-76
2023/12/31 04:58:03;;;;;;;;;;;;;;;5.35;72.78;98986.34;1085424;54;1170;-76
2023/12/31 04:59:08;;;;;;;;;;;;;;;5.43;72.71;98977.72;1085374;54;1151;-76
2023/12/31 05:00:10;;;;;;;;;;;;;;;5.28;72.83;98979.91;1085068;54;1398;-76
2023/12/31 05:01:10;;;;;;;;;;;;;;;5.28;72.96;98978.09;1085216;47;1029;-77
2023/12/31 05:02:14;;;;;;;;;;;;;;;5.21;72.86;98986.72;1085105;54;1056;-76
2023/12/31 05:03:14;;;;;;;;;;;;;;;5.23;72.99;98990.94;1084556;54;1054;-76
2023/12/31 05:04:18;;;;;;;;;;;;;;;5.34;72.61;98992.63;1084658;47;1141;-77
2023/12/31 05:05:19;;;;;;;;;;;;;;;5.29;72.96;98986.91;1084909;54;1158;-75
2023/12/31 05:06:20;;;;;;;;;;;;;;;5.28;72.78;98987.88;1085340;54;1135;-75
2023/12/31 05:07:24;;;;;;;;;;;;;;;5.27;72.93;98988.84;1087176;46;1089;-76
2023/12/31 05:08:25;;;;;;;;;;;;;;;5.25;73.07;98980.19;1087157;54;1115;-78
2023/12/31 05:09:28;;;;;;;;;;;;;;;5.19;73.24;98984.22;1087153;54;1158;-78
2023/12/31 05:10:29;;;;;;;;;;;;;;;5.25;73.04;98982.84;1087513;54;1271;-77
2023/12/31 05:11:40;;;;;;;;;;;;;;;5.24;73.23;98981.16;1087929;54;1152;-77
2023/12/31 05:12:41;;;;;;;;;;;;;;;5.17;73.23;98972.09;1087589;47;1217;-79
2023/12/31 05:13:42;;;;;;;;;;;;;;;5.20;73.14;98974.44;1087393;54;1231;-75
2023/12/31 05:14:48;;;;;;;;;;;;;;;5.12;73.70;98973.31;1085399;54;1280;-76
2023/12/31 05:15:49;;;;;;;;;;;;;;;5.16;73.74;98957.97;1085687;47;1183;-76
2023/12/31 05:16:53;;;;;;;;;;;;;;;5.20;73.49;98963.84;1085365;47;1524;-76
2023/12/31 05:17:55;;;;;;;;;;;;;;;5.21;73.47;98965.53;1085271;47;1850;-76
2023/12/31 05:18:58;;;;;;;;;;;;;;;5.15;73.45;98973.06;1085226;54;1184;-77
2023/12/31 05:19:59;;;;;;;;;;;;;;;5.21;73.37;98969.03;1084565;47;1393;-78
2023/12/31 05:21:03;;;;;;;;;;;;;;;5.26;73.51;98971.28;1084989;54;1189;-75
2023/12/31 05:22:04;;;;;;;;;;;;;;;5.24;73.45;98963.44;1085105;54;1182;-76
2023/12/31 05:23:07;;;;;;;;;;;;;;;5.38;73.37;98962.22;1085957;54;1458;-77
2023/12/31 05:24:07;;;;;;;;;;;;;;;5.37;73.31;98955.25;1085579;54;1083;-77
2023/12/31 05:25:11;;;;;;;;;;;;;;;5.40;73.05;98970.03;1084327;46;1159;-76
2023/12/31 05:26:12;;;;;;;;;;;;;;;5.38;73.03;98961.38;1084559;54;1093;-75
2023/12/31 05:27:16;;;;;;;;;;;;;;;5.44;72.93;98961.66;1084824;47;1162;-76
2023/12/31 05:28:24;;;;;;;;;;;;;;;5.52;72.61;98962.78;1084809;47;1170;-76
2023/12/31 05:29:27;;;;;;;;;;;;;;;5.59;72.54;98959.44;1085125;47;1075;-78
2023/12/31 05:30:31;;;;;;;;;;;;;;;5.63;72.28;98966.13;1084860;47;1370;-76
2023/12/31 05:31:36;;;;;;;;;;;;;;;5.61;72.59;98965.44;1084915;54;1134;-76
2023/12/31 05:32:37;;;;;;;;;;;;;;;5.69;72.25;98963.91;1084482;47;1086;-77
2023/12/31 05:33:40;;;;;;;;;;;;;;;5.57;72.23;98957.91;1084585;47;1326;-77
2023/12/31 05:34:41;;;;;;;;;;;;;;;5.51;72.72;98947.84;1084765;47;1202;-77
2023/12/31 05:35:44;;;;;;;;;;;;;;;5.49;72.81;98955.09;1084780;54;1113;-76
2023/12/31 05:36:46;;;;;;;;;;;;;;;5.43;72.85;98951.22;1085018;54;1158;-77
2023/12/31 05:37:49;;;;;;;;;;;;;;;5.51;72.56;98950.50;1084713;54;1875;-76
2023/12/31 05:38:50;;;;;;;;;;;;;;;5.46;72.68;98950.91;1084331;47;1105;-76
2023/12/31 05:39:50;;;;;;;;;;;;;;;5.47;72.69;98945.50;1084662;54;1127;-79
2023/12/31 05:40:54;;;;;;;;;;;;;;;5.39;72.98;98942.66;1084456;54;1416;-76
2023/12/31 05:41:55;;;;;;;;;;;;;;;5.27;73.12;98944.63;1084432;47;1156;-77
2023/12/31 05:42:58;;;;;;;;;;;;;;;5.29;73.20;98944.50;1085843;54;1030;-76
2023/12/31 05:43:59;;;;;;;;;;;;;;;5.25;73.16;98946.56;1085200;47;1055;-76
2023/12/31 05:45:03;;;;;;;;;;;;;;;5.29;73.02;98945.31;1085219;54;1087;-76
2023/12/31 05:46:06;;;;;;;;;;;;;;;5.27;72.93;98938.50;1084955;47;929;-77
2023/12/31 05:47:07;;;;;;;;;;;;;;;5.15;73.33;98930.66;1084935;47;1139;-76
2023/12/31 05:48:10;;;;;;;;;;;;;;;5.15;73.55;98929.81;1085144;47;1501;-76
2023/12/31 05:49:11;;;;;;;;;;;;;;;5.17;73.40;98927.03;1084993;54;1088;-77
2023/12/31 05:50:12;;;;;;;;;;;;;;;5.17;73.38;98927.88;1084668;47;1358;-78
2023/12/31 05:51:15;;;;;;;;;;;;;;;5.10;73.59;98927.56;1084815;47;1156;-76
2023/12/31 05:52:16;;;;;;;;;;;;;;;5.18;73.55;98926.06;1084874;47;1113;-76
2023/12/31 05:53:19;;;;;;;;;;;;;;;5.21;73.47;98925.78;1084857;47;1164;-78
2023/12/31 05:54:20;;;;;;;;;;;;;;;5.28;73.28;98919.78;1085146;47;1141;-76
2023/12/31 05:55:21;;;;;;;;;;;;;;;5.37;73.11;98912.84;1084798;47;1130;-76
2023/12/31 05:56:24;;;;;;;;;;;;;;;5.37;73.31;98902.25;1084917;47;1467;-77
2023/12/31 05:57:25;;;;;;;;;;;;;;;5.24;73.65;98914.91;1084837;54;1894;-76
2023/12/31 05:58:29;;;;;;;;;;;;;;;5.29;73.45;98905.56;1085080;54;1427;-77
2023/12/31 05:59:30;;;;;;;;;;;;;;;5.36;73.09;98916.47;1084935;47;1186;-77
2023/12/31 06:00:33;;;;;;;;;;;;;;;5.36;73.03;98911.16;1085154;47;1636;-78
2023/12/31 06:01:36;;;;;;;;;;;;;;;5.38;72.99;98909.22;1085746;47;1067;-77
2023/12/31 06:02:40;;;;;;;;;;;;;;;5.35;73.23;98913.94;1085651;47;1142;-78
2023/12/31 06:03:40;;;;;;;;;;;;;;;5.44;72.97;98908.66;1085481;47;951;-75
2023/12/31 06:04:43;;;;;;;;;;;;;;;5.51;72.70;98919.53;1084985;47;1162;-76
2023/12/31 06:05:44;;;;;;;;;;;;;;;5.49;72.74;98910.88;1085256;54;1150;-76
2023/12/31 06:06:46;;;;;;;;;;;;;;;5.52;72.79;98915.06;1084823;54;1173;-76
2023/12/31 06:07:49;;;;;;;;;;;;;;;5.54;72.57;98910.47;1085600;54;1026;-77
2023/12/31 06:08:50;;;;;;;;;;;;;;;5.60;72.42;98915.19;1085538;47;1018;-76
2023/12/31 06:09:53;;;;;;;;;;;;;;;5.60;72.25;98918.69;1086827;47;1164;-79
2023/12/31 06:10:54;;;;;;;;;;;;;;;5.55;72.73;98914.78;1087674;54;1107;-77
2023/12/31 06:11:57;;;;;;;;;;;;;;;5.55;72.55;98904.19;1088011;47;1127;-77
2023/12/31 06:12:58;;;;;;;;;;;;;;;5.55;72.51;98910.31;1087628;47;1090;-76
2023/12/31 06:14:02;;;;;;;;;;;;;;;5.57;72.55;98920.78;1087884;47;997;-77
2023/12/31 06:15:06;;;;;;;;;;;;;;;5.57;72.27;98913.66;1087599;54;1071;-76
2023/12/31 06:16:10;;;;;;;;;;;;;;;5.52;72.41;98913.25;1085615;54;1258;-76
2023/12/31 06:17:13;;;;;;;;;;;;;;;5.54;72.25;98918.41;1084617;47;1200;-77
2023/12/31 06:18:15;;;;;;;;;;;;;;;5.60;72.24;98917.84;1084198;47;1840;-76
2023/12/31 06:19:19;;;;;;;;;;;;;;;5.53;72.34;98920.22;1084695;54;1157;-76
2023/12/31 06:20:19;;;;;;;;;;;;;;;5.48;72.50;98914.50;1084746;47;1342;-76
2023/12/31 06:21:21;;;;;;;;;;;;;;;5.46;72.61;98916.44;1084595;47;1193;-75
2023/12/31 06:22:24;;;;;;;;;;;;;;;5.42;72.56;98918.53;1084601;54;1138;-76
2023/12/31 06:23:25;;;;;;;;;;;;;;;5.38;72.88;98906.56;1085025;47;1138;-76
2023/12/31 06:24:28;;;;;;;;;;;;;;;5.39;73.07;98908.22;1084692;54;1093;-76
2023/12/31 06:25:29;;;;;;;;;;;;;;;5.49;72.62;98902.94;1084541;54;1147;-76
2023/12/31 06:26:32;;;;;;;;;;;;;;;5.42;72.90;98905.28;1083885;54;1158;-76
2023/12/31 06:27:33;;;;;;;;;;;;;;;5.50;72.64;98901.09;1084353;54;1133;-76
2023/12/31 06:28:36;;;;;;;;;;;;;;;5.54;72.72;98913.09;1084442;47;984;-75
2023/12/31 06:29:37;;;;;;;;;;;;;;;5.55;72.59;98917.44;1084490;54;1070;-76
2023/12/31 06:30:40;;;;;;;;;;;;;;;5.64;72.35;98908.63;1085505;54;1318;-77
2023/12/31 06:31:41;;;;;;;;;;;;;;;5.61;72.35;98911.56;1086096;47;1165;-77
2023/12/31 06:32:47;;;;;;;;;;;;;;;5.63;72.45;98914.91;1085745;47;1147;-77
2023/12/31 06:33:47;;;;;;;;;;;;;;;5.68;72.26;98911.84;1085594;54;1086;-76
2023/12/31 06:34:48;;;;;;;;;;;;;;;5.74;72.20;98920.06;1085997;47;1051;-77
2023/12/31 06:35:51;;;;;;;;;;;;;;;5.76;72.21;98923.41;1085556;47;1092;-76
2023/12/31 06:36:53;;;;;;;;;;;;;;;5.83;71.85;98918.38;1085728;54;1151;-76
2023/12/31 06:37:56;;;;;;;;;;;;;;;5.85;72.24;98926.22;1085790;54;1857;-76
2023/12/31 06:38:56;;;;;;;;;;;;;;;5.93;71.71;98924.50;1085644;54;1035;-76
2023/12/31 06:40:00;;;;;;;;;;;;;;;6.00;71.91;98908.88;1084935;47;1279;-76
2023/12/31 06:41:05;;;;;;;;;;;;;;;5.96;71.85;98920.72;1085365;47;1117;-76
2023/12/31 06:42:09;;;;;;;;;;;;;;;6.05;71.45;98911.94;1085274;47;1094;-76
2023/12/31 06:43:11;;;;;;;;;;;;;;;6.12;71.51;98912.19;1085505;54;1172;-77
2023/12/31 06:44:14;;;;;;;;;;;;;;;6.18;71.32;98908.13;1085494;47;1086;-77
2023/12/31 06:45:14;;;;;;;;;;;;;;;6.24;71.27;98913.72;1085479;47;1142;-77
2023/12/31 06:46:18;;;;;;;;;;;;;;;6.22;71.34;98902.41;1085524;47;1146;-77
2023/12/31 06:47:20;;;;;;;;;;;;;;;6.28;70.92;98900.97;1085148;54;1178;-76
2023/12/31 06:48:26;;;;;;;;;;;;;;;6.26;71.14;98902.94;1085390;54;1078;-76
2023/12/31 06:49:27;;;;;;;;;;;;;;;6.32;70.65;98897.06;1085018;46;1607;-75
2023/12/31 06:50:30;;;;;;;;;;;;;;;6.34;70.90;98894.25;1085227;54;1340;-77
2023/12/31 06:51:31;;;;;;;;;;;;;;;6.44;70.59;98894.22;1085321;54;1507;-76
2023/12/31 06:52:31;;;;;;;;;;;;;;;6.45;70.60;98894.09;1084936;54;1301;-76
2023/12/31 06:53:35;;;;;;;;;;;;;;;6.46;70.46;98892.25;1085392;47;1143;-76
2023/12/31 06:54:36;;;;;;;;;;;;;;;6.49;70.54;98889.31;1085506;54;1122;-76
2023/12/31 06:55:39;;;;;;;;;;;;;;;6.55;70.17;98899.34;1086033;47;1775;-76
2023/12/31 06:56:41;;;;;;;;;;;;;;;6.61;70.19;98898.75;1085010;54;1079;-75
2023/12/31 06:57:44;;;;;;;;;;;;;;;6.62;69.84;98908.38;1085368;54;1106;-76
2023/12/31 06:58:45;;;;;;;;;;;;;;;6.59;70.08;98897.22;1085331;47;1189;-76
2023/12/31 06:59:48;;;;;;;;;;;;;;;6.54;70.35;98900.31;1085592;54;1107;-76
2023/12/31 07:00:49;;;;;;;;;;;;;;;6.51;70.43;98897.97;1085571;46;1327;-76
2023/12/31 07:01:52;;;;;;;;;;;;;;;6.64;69.84;98901.09;1085299;47;1170;-76
2023/12/31 07:02:53;;;;;;;;;;;;;;;6.65;69.91;98905.44;1085426;54;1161;-76
2023/12/31 07:03:58;;;;;;;;;;;;;;;6.61;70.04;98905.88;1085678;54;1091;-76
2023/12/31 07:04:59;;;;;;;;;;;;;;;6.66;69.67;98899.16;1085698;47;1092;-76
2023/12/31 07:06:00;;;;;;;;;;;;;;;6.60;69.96;98907.72;1085633;54;1510;-76
2023/12/31 07:07:04;;;;;;;;;;;;;;;6.64;69.97;98898.44;1085454;47;1153;-76
2023/12/31 07:08:05;;;;;;;;;;;;;;;6.61;69.86;98901.41;1085286;54;1063;-76
2023/12/31 07:09:08;;;;;;;;;;;;;;;6.69;69.82;98898.00;1085626;54;1102;-77
2023/12/31 07:10:09;;;;;;;;;;;;;;;6.70;69.71;98905.84;1085608;46;1406;-75
2023/12/31 07:11:14;;;;;;;;;;;;;;;6.67;69.70;98900.81;1085553;54;1457;-76
2023/12/31 07:12:15;;;;;;;;;;;;;;;6.77;69.52;98899.94;1085213;51;1192;-76
2023/12/31 07:13:19;;;;;;;;;;;;;;;6.79;69.53;98901.44;1085320;54;1076;-77
2023/12/31 07:14:21;;;;;;;;;;;;;;;6.86;69.23;98894.53;1086126;47;1452;-77
2023/12/31 07:15:25;;;;;;;;;;;;;;;6.94;68.84;98891.16;1085836;47;1178;-76
2023/12/31 07:16:26;;;;;;;;;;;;;;;6.98;68.64;98897.84;1085451;54;1174;-75
2023/12/31 07:17:29;;;;;;;;;;;;;;;7.01;68.74;98889.56;1085565;54;1065;-76
2023/12/31 07:18:30;;;;;;;;;;;;;;;7.08;68.36;98887.16;1085673;47;1886;-78
2023/12/31 07:19:35;;;;;;;;;;;;;;;7.13;68.16;98884.03;1086410;54;1090;-79
2023/12/31 07:20:36;;;;;;;;;;;;;;;7.20;67.78;98887.75;1086270;54;1323;-78
2023/12/31 07:21:39;;;;;;;;;;;;;;;7.25;67.24;98881.97;1086438;54;1170;-78
2023/12/31 07:22:40;;;;;;;;;;;;;;;7.29;67.04;98884.19;1086770;47;1088;-79
2023/12/31 07:23:43;;;;;;;;;;;;;;;7.36;66.97;98888.91;1086880;54;1553;-78
2023/12/31 07:24:44;;;;;;;;;;;;;;;7.37;66.91;98886.09;1086989;47;1171;-79
2023/12/31 07:25:48;;;;;;;;;;;;;;;7.46;66.62;98887.00;1086649;54;999;-76
2023/12/31 07:26:48;;;;;;;;;;;;;;;7.49;66.58;98889.34;1086060;47;1193;-78
2023/12/31 07:27:52;;;;;;;;;;;;;;;7.54;66.40;98868.47;1085507;54;1288;-78
2023/12/31 07:28:52;;;;;;;;;;;;;;;7.61;65.98;98866.00;1086458;54;1151;-78
2023/12/31 07:29:56;;;;;;;;;;;;;;;7.67;65.50;98869.88;1086563;47;1324;-78
2023/12/31 07:30:57;;;;;;;;;;;;;;;7.71;65.42;98873.91;1086506;46;1235;-79
2023/12/31 07:32:00;;;;;;;;;;;;;;;7.72;65.32;98875.56;1085915;54;1166;-76
2023/12/31 07:33:01;;;;;;;;;;;;;;;7.74;65.09;98870.94;1085867;46;1089;-78
2023/12/31 07:34:04;;;;;;;;;;;;;;;7.75;65.10;98867.25;1085727;47;1174;-76
2023/12/31 07:35:08;;;;;;;;;;;;;;;7.69;65.05;98875.88;1086484;47;1625;-76
2023/12/31 07:36:12;;;;;;;;;;;;;;;7.71;65.29;98876.56;1087173;47;1163;-76
2023/12/31 07:37:12;;;;;;;;;;;;;;;7.71;65.28;98890.69;1087101;46;1106;-77
2023/12/31 07:38:15;;;;;;;;;;;;;;;7.69;65.35;98897.16;1087230;54;1877;-76
2023/12/31 07:39:16;;;;;;;;;;;;;;;7.58;65.56;98896.41;1087140;47;1045;-77
2023/12/31 07:40:19;;;;;;;;;;;;;;;7.55;65.59;98896.72;1087312;54;1397;-76
2023/12/31 07:41:20;;;;;;;;;;;;;;;7.54;65.73;98895.06;1087455;54;1084;-77
2023/12/31 07:42:23;;;;;;;;;;;;;;;7.54;65.80;98889.75;1087709;54;1134;-77
2023/12/31 07:43:24;;;;;;;;;;;;;;;7.50;66.11;98896.34;1087605;54;1155;-78
2023/12/31 07:44:27;;;;;;;;;;;;;;;7.51;66.30;98897.19;1087593;54;1130;-77
2023/12/31 07:45:28;;;;;;;;;;;;;;;7.49;66.34;98905.31;1087572;54;1034;-77
2023/12/31 07:46:31;;;;;;;;;;;;;;;7.55;66.31;98885.25;1086798;47;959;-78
2023/12/31 07:47:35;;;;;;;;;;;;;;;7.57;66.22;98881.44;1086847;47;1059;-77
2023/12/31 07:48:38;;;;;;;;;;;;;;;7.58;65.99;98888.41;1085106;54;1007;-77
2023/12/31 07:49:38;;;;;;;;;;;;;;;7.59;65.78;98890.09;1084989;54;991;-76
2023/12/31 07:50:44;;;;;;;;;;;;;;;7.69;65.45;98883.84;1085006;47;1378;-77
2023/12/31 07:51:45;;;;;;;;;;;;;;;7.78;65.07;98869.63;1085378;54;1172;-78
2023/12/31 07:52:48;;;;;;;;;;;;;;;7.81;64.77;98861.34;1085392;54;1172;-75
2023/12/31 07:53:49;;;;;;;;;;;;;;;7.87;64.58;98860.69;1084880;47;1515;-77
2023/12/31 07:54:52;;;;;;;;;;;;;;;7.87;64.39;98882.00;1085513;54;1067;-75
2023/12/31 07:55:54;;;;;;;;;;;;;;;7.97;64.04;98880.06;1085197;54;1124;-77
2023/12/31 07:56:58;;;;;;;;;;;;;;;8.01;63.43;98877.09;1085783;54;1150;-76
2023/12/31 07:57:58;;;;;;;;;;;;;;;8.05;63.12;98878.44;1086440;54;1513;-77
2023/12/31 07:59:03;;;;;;;;;;;;;;;8.10;62.65;98870.81;1086744;46;1850;-77
2023/12/31 08:00:05;;;;;;;;;;;;;;;8.18;62.51;98872.69;1087765;46;1426;-78
2023/12/31 08:01:08;;;;;;;;;;;;;;;8.25;62.25;98863.91;1087448;47;1367;-78
2023/12/31 08:02:09;;;;;;;;;;;;;;;8.29;61.92;98864.44;1087559;54;1308;-77
2023/12/31 08:03:12;;;;;;;;;;;;;;;8.38;61.85;98871.47;1088026;54;1042;-77
2023/12/31 08:04:13;;;;;;;;;;;;;;;8.45;61.76;98868.19;1087530;46;999;-77
2023/12/31 08:05:16;;;;;;;;;;;;;;;8.45;61.38;98863.66;1087088;54;1187;-77
2023/12/31 08:06:20;;;;;;;;;;;;;;;8.49;61.37;98851.75;1086908;47;1263;-77
2023/12/31 08:07:23;;;;;;;;;;;;;;;8.50;61.12;98853.38;1086513;47;1161;-77
2023/12/31 08:08:24;;;;;;;;;;;;;;;8.41;61.25;98857.84;1087135;46;1087;-75
2023/12/31 08:09:27;;;;;;;;;;;;;;;8.48;60.81;98857.22;1087079;46;1138;-76
2023/12/31 08:10:28;;;;;;;;;;;;;;;8.47;60.26;98850.19;1086977;54;1294;-77
2023/12/31 08:11:28;;;;;;;;;;;;;;;8.57;59.77;98857.09;1087062;54;1265;-77
2023/12/31 08:12:32;;;;;;;;;;;;;;;8.60;59.56;98841.81;1086947;47;1224;-78
2023/12/31 08:13:34;;;;;;;;;;;;;;;8.61;59.38;98833.63;1085774;47;1031;-77
2023/12/31 08:14:37;;;;;;;;;;;;;;;8.72;59.31;98837.81;1085966;54;1166;-77
2023/12/31 08:15:38;;;;;;;;;;;;;;;8.71;59.10;98836.16;1086796;54;1189;-77
2023/12/31 08:16:41;;;;;;;;;;;;;;;8.77;58.82;98834.66;1086670;54;1161;-78
2023/12/31 08:17:44;;;;;;;;;;;;;;;8.81;58.19;98830.69;1086414;54;1653;-76
2023/12/31 08:18:44;;;;;;;;;;;;;;;8.86;58.15;98826.53;1086200;47;1912;-76
2023/12/31 08:19:48;;;;;;;;;;;;;;;8.92;57.95;98833.06;1086344;46;1507;-77
2023/12/31 08:20:48;;;;;;;;;;;;;;;8.95;57.57;98823.88;1086273;54;1359;-76
2023/12/31 08:21:52;;;;;;;;;;;;;;;8.98;57.43;98821.72;1086319;47;1306;-76
2023/12/31 08:22:55;;;;;;;;;;;;;;;9.00;57.51;98827.72;1086397;47;1291;-77
2023/12/31 08:23:55;;;;;;;;;;;;;;;9.02;57.10;98823.03;1086340;47;1519;-77
2023/12/31 08:25:00;;;;;;;;;;;;;;;9.01;57.27;98828.56;1086511;47;1478;-76
2023/12/31 08:26:01;;;;;;;;;;;;;;;9.04;57.07;98823.72;1086358;46;1129;-76
2023/12/31 08:27:05;;;;;;;;;;;;;;;9.04;57.31;98828.22;1086647;54;1074;-76
2023/12/31 08:28:05;;;;;;;;;;;;;;;9.11;57.28;98829.22;1086133;47;1194;-77
2023/12/31 08:29:09;;;;;;;;;;;;;;;9.13;57.18;98824.56;1086416;54;1484;-76
2023/12/31 08:30:09;;;;;;;;;;;;;;;9.13;56.89;98829.06;1086344;47;1475;-76
2023/12/31 08:31:14;;;;;;;;;;;;;;;9.00;57.14;98826.88;1086331;47;1566;-76
2023/12/31 08:32:18;;;;;;;;;;;;;;;8.99;57.35;98834.06;1086272;47;1108;-77
2023/12/31 08:33:21;;;;;;;;;;;;;;;8.98;57.25;98834.19;1086596;54;1154;-75
2023/12/31 08:34:22;;;;;;;;;;;;;;;8.88;57.12;98840.50;1087319;47;1308;-76
2023/12/31 08:35:23;;;;;;;;;;;;;;;8.87;57.21;98836.22;1086461;47;1380;-76
2023/12/31 08:36:27;;;;;;;;;;;;;;;8.92;57.27;98838.38;1087167;46;1499;-78
2023/12/31 08:37:30;;;;;;;;;;;;;;;8.76;57.29;98836.50;1086986;54;1177;-78